METAR Data
IDs: Format: Raw Decoded Include TAF

Data at: 0148 UTC 19 Nov 2018

PAHP 190104Z AUTO 27009KT 4SM -SN BR SCT005 SCT011 OVC018 00/M01 A2939 RMK AO2 P0000 FZRANO
PAHP 190056Z AUTO 27009KT 4SM -SN BR SCT005 BKN011 OVC016 00/M01 A2939 RMK AO2 UPB13E52SNE13B52 CIG 008V012 SLP988 P0000 T00001006 FZRANO
PAHP 190054Z AUTO 27009KT 5SM -SN BR SCT005 BKN011 OVC016 00/M01 A2939 RMK AO2 UPB13E52SNE13B52 P0000 FZRANO
PAHP 190043Z AUTO 27008KT 6SM UP BR BKN005 OVC011 00/M01 A2938 RMK AO2 UPB13SNE13 CIG 004V007 P0000 FZRANO
PAHP 190006Z AUTO 26006KT 5SM -SN BR BKN007 OVC014 00/M01 A2938 RMK AO2 CIG 004V010 P0000 FZRANO
PAHP 182356Z AUTO 26005KT 4SM -SN BR SCT005 OVC014 00/M01 A2939 RMK AO2 SLP987 P0000 60002 T00001006 10000 21017 51008 FZRANO
PAHP 182340Z AUTO 26006KT 3SM -SN BR FEW005 BKN014 OVC037 00/M01 A2938 RMK AO2 P0000 FZRANO
PAHP 182331Z AUTO 27006KT 2 1/2SM -SN BR FEW014 BKN035 00/M01 A2938 RMK AO2 P0000 FZRANO
PAHP 182317Z AUTO 26006KT 4SM -SN BR OVC035 00/M01 A2938 RMK AO2 P0000 FZRANO
PAHP 182256Z AUTO 27005KT 4SM -SN BR OVC027 M01/M01 A2938 RMK AO2 SLP986 P0001 T10061006 FZRANO
PAHP 182232Z AUTO 27005KT 4SM -SN BR FEW016 OVC023 M01/M01 A2938 RMK AO2 P0001 FZRANO
PAHP 182203Z AUTO 28004KT 2 1/2SM -SN BR SCT016 BKN023 OVC037 M01/M01 A2937 RMK AO2 P0000 FZRANO
PAHP 182156Z AUTO 28004KT 4SM -SN BR FEW016 OVC035 M01/M01 A2937 RMK AO2 UPE2058SNB2058 SLP983 P0000 T10061006 FZRANO
PAHP 182134Z AUTO 30003KT 4SM -SN BR SCT007 BKN030 OVC037 M01/M01 A2937 RMK AO2 UPE2058SNB2058 P0000 FZRANO
PAHP 182114Z AUTO 29003KT 6SM -SN BR BKN007 BKN012 OVC020 M01/M01 A2937 RMK AO2 UPE2058SNB2058 P0000 FZRANO
PAHP 182056Z AUTO 29003KT 7SM UP OVC020 M01/M01 A2936 RMK AO2 SLP979 P0000 60001 T10061006 52013 FZRANO
PAHP 181956Z AUTO 00000KT 5SM UP BR SCT003 OVC022 M01/M02 A2935 RMK AO2 UPB06SNE06 SLP975 P0001 T10111017 FZRANO
PAHP 181924Z AUTO 31003KT 6SM UP BR OVC003 M01/M02 A2934 RMK AO2 UPB06SNE06 P0000 FZRANO
PAHP 181856Z AUTO 31003KT 5SM -SN BR OVC005 M02/M02 A2933 RMK AO2 UPB1758E48SNE1758B48 SLP970 P0000 T10171017 FZRANO
PAHP 181837Z AUTO 00000KT 10SM UP SCT005 M02/M02 A2933 RMK AO2 UPB1758SNE1758 P0000 FZRANO
PAHP 181756Z AUTO 05003KT 8SM -SN SCT019 M02/M02 A2932 RMK AO2 SLP966 P0000 60004 T10171017 11006 21017 51004 FZRANO
PAHP 181456Z AUTO 07004KT 3SM -SN BR OVC021 M01/M01 A2931 RMK AO2 SLP962 P0001 60003 T10061011 53003 FZRANO
PAHP 181356Z AUTO 07006KT 3SM -SN BR OVC021 M01/M01 A2931 RMK AO2 SLP962 P0001 T10061011 FZRANO
PAHP 181319Z AUTO 07007KT 8SM -SN BKN026 OVC034 M01/M01 A2931 RMK AO2 P0000 FZRANO
PAHP 181256Z AUTO 06007KT 5SM -SN BR SCT018 OVC030 M01/M01 A2930 RMK AO2 SLP959 P0001 T10061011 FZRANO
PAHP 181156Z AUTO 06006KT 5SM -SN BR SCT004 OVC020 M01/M01 A2930 RMK AO2 SLP958 P0001 60005 70022 T10061011 10000 21006 50001 FZRANO
PAHP 181133Z AUTO 07007KT 3SM -SN BR FEW005 OVC020 M01/M01 A2930 RMK AO2 P0001 FZRANO
PAHP 181056Z AUTO 07007KT 3SM -SN BR OVC016 M01/M01 A2930 RMK AO2 SLP960 P0001 T10061006 FZRANO
PAHP 181008Z AUTO 07007KT 3SM -SN BR FEW004 SCT008 OVC018 M01/M01 A2930 RMK AO2 P0000 FZRANO
PAHP 180956Z AUTO 07007KT 3SM -SN BR BKN004 OVC016 00/M01 A2930 RMK AO2 CIG 003V008 SLP959 P0001 T00001006 FZRANO
PAHP 180756Z AUTO 06009KT 10SM -SN OVC004 00/ A2929 RMK AO2 UPE53SNB53 SLP956 P0001 T0000 FZRANO
PAHP 180656Z AUTO 07010KT 10SM UP OVC004 00/M01 A2929 RMK AO2 SLP956 P0001 T00001006 FZRANO
PAHP 180556Z AUTO 07010KT 10SM UP OVC004 00/M01 A2930 RMK AO2 SLP957 P0002 60009 T00001006 10000 20000 58001 FZRANO
PAHP 180456Z AUTO 07011KT 10SM UP OVC004 00/M01 A2930 RMK AO2 SLP958 P0002 T00001006 FZRANO
PAHP 180256Z AUTO 07010KT 10SM UP FEW005 OVC012 00/00 A2930 RMK AO2 SLP959 P0001 60004 T00000000 56008 FZRANO
PAHP 180248Z AUTO 07011KT 6SM UP BR SCT005 OVC012 00/00 A2930 RMK AO2 P0001 FZRANO
PAHP 180112Z AUTO 07010KT 10SM UP OVC007 00/M01 A2931 RMK AO2 CIG 003V010 P0001 FZRANO
PAHP 180020Z AUTO 07011KT 4SM UP BR OVC005 00/M01 A2932 RMK AO2 CIG 002V008 P0000 FZRANO
PAHP 180012Z AUTO 07012KT 4SM UP BR BKN003 OVC007 00/M01 A2932 RMK AO2 CIG 002V006 P0000 FZRANO
PAHP 180005Z AUTO 07010KT 6SM UP BR OVC005 00/M01 A2932 RMK AO2 CIG 003V007 P0000 FZRANO
PAHP 172343Z AUTO 07011KT 6SM UP BR BKN004 OVC009 00/M01 A2933 RMK AO2 CIG 003V008 P0001 FZRANO
PAHP 172335Z AUTO 07011KT 7SM UP SCT004 OVC009 00/M01 A2933 RMK AO2 P0001 FZRANO
PAHP 172304Z AUTO 07012KT 6SM UP BR BKN004 OVC008 00/M01 A2934 RMK AO2 CIG 003V008 P0000 FZRANO
PAHP 172256Z AUTO 07012KT 7SM UP SCT004 OVC008 00/M01 A2934 RMK AO2 SLP971 P0003 T00001006 FZRANO
PAHP 172156Z AUTO 07012KT 8SM UP OVC006 00/M01 A2935 RMK AO2 CIG 003V010 SLP975 P0001 T00001006 FZRANO
PAHP 172154Z AUTO 07011KT 8SM UP OVC006 00/M01 A2935 RMK AO2 CIG 003V009 P0001 FZRANO
PAHP 172127Z AUTO 08014KT 7SM UP BKN004 BKN007 OVC025 00/M01 A2935 RMK AO2 P0000 FZRANO
PAHP 172117Z AUTO 07013KT 9SM UP SCT004 BKN007 OVC025 00/M01 A2935 RMK AO2 P0000 FZRANO
PAHP 172051Z AUTO 07013KT 8SM UP SCT004 OVC012 00/M01 A2936 RMK AO2 P0001 FZRANO
PAHP 172022Z AUTO 07011KT 8SM UP BKN008 BKN013 OVC017 00/M01 A2936 RMK AO2 CIG 006V010 P0001 FZRANO
PAHP 171956Z AUTO 07012KT 3SM UP BR BKN013 OVC018 00/M01 A2936 RMK AO2 UPB12E26B50 SLP980 P0000 T00001006 FZRANO
PAHP 171953Z AUTO 07012KT 3SM UP BR SCT007 OVC013 00/M01 A2936 RMK AO2 UPB12E26B50 P0000 FZRANO
PAHP 171925Z AUTO 07011KT 3SM UP BR OVC007 00/M01 A2936 RMK AO2 UPB12 CIG 003V009 P0000 FZRANO
PAHP 171912Z AUTO 07012KT 2 1/2SM UP BR SCT004 BKN007 OVC013 M01/M01 A2937 RMK AO2 UPB12 P0000 FZRANO
PAHP 171856Z AUTO 07011KT 9SM BKN004 OVC013 M01/M01 A2937 RMK AO2 SNE35 SLP982 P0001 T10061006 FZRANO
PAHP 171756Z AUTO 07012KT 3SM -SN BR OVC004 M01/M01 A2937 RMK AO2 SNE1659B43 SLP983 P0000 60000 T10061011 11006 21017 58007 FZRANO
PAHP 171716Z AUTO 07013KT 3SM BR OVC004 M01/M01 A2938 RMK AO2 SNE1659 P0000 FZRANO
PAHP 171705Z AUTO 07012KT 2SM BR OVC004 M01/M01 A2938 RMK AO2 SNE1659 P0000 FZRANO
PAHP 171656Z AUTO 07012KT 1 3/4SM -SN BR OVC004 M01/M02 A2938 RMK AO2 SNB32 SLP985 P0000 T10111017 FZRANO
PAHP 171607Z AUTO 07012KT 2SM BR OVC004 M02/M02 A2938 RMK AO2 FZRANO
PAHP 171454Z AUTO 08011KT 6SM BR SCT004 OVC009 M02/M02 A2939 RMK AO2 FZRANO
PAHP 171356Z AUTO 08009KT 6SM BR OVC004 M02/M02 A2941 RMK AO2 CIG 002V006 SLP997 T10171022 FZRANO